This is the latest recevied weather packets stored in our database for station/object CX2SA-13. If no packets are shown the sender has not sent any weather packets the latest 10 day(s).
| Time | Temp. | Humidity | Pressure | Rain* | Wind** | Luminosity | Snow |
|---|---|---|---|---|---|---|---|
| 1777992286 | 28.33° C | 75% | 1011.1 hPa | 0 mm | - | - | - |
| 1777991384 | 27.78° C | 78% | 1011.5 hPa | 0 mm | - | - | - |
| 1777990485 | 26.11° C | 82% | 1011.5 hPa | 0 mm | - | - | - |
| 1777989584 | 25° C | 84% | 1011.5 hPa | 0 mm | - | - | - |
| 1777988684 | 25° C | 84% | 1011.5 hPa | 0 mm | - | - | - |
| 1777987785 | 26.67° C | 79% | 1011.8 hPa | 0 mm | - | - | - |
| 1777986884 | 24.44° C | 86% | 1011.8 hPa | 0 mm | - | - | - |
| 1777985985 | 23.89° C | 89% | 1011.5 hPa | 0 mm | - | - | - |
| 1777985085 | 22.22° C | 92% | 1011.5 hPa | 0 mm | - | - | - |
| 1777984184 | 21.67° C | 93% | 1011.5 hPa | 0 mm | - | - | - |
| 1777983285 | 21.67° C | 93% | 1011.1 hPa | 0 mm | - | - | - |
| 1777982386 | 21.11° C | 94% | 1011.1 hPa | 0 mm | - | - | - |
| 1777981484 | 20.56° C | 94% | 1011.1 hPa | 0 mm | - | - | - |
| 1777980585 | 20° C | 94% | 1010.8 hPa | 0 mm | - | - | - |
| 1777979684 | 19.44° C | 95% | 1010.8 hPa | 0 mm | - | - | - |
| 1777978785 | 18.89° C | 95% | 1010.8 hPa | 0 mm | - | - | - |
| 1777977885 | 18.89° C | 95% | 1010.5 hPa | 0 mm | - | - | - |
| 1777976984 | 18.89° C | 94% | 1010.5 hPa | 0 mm | - | - | - |
| 1777976085 | 18.89° C | 94% | 1010.5 hPa | 0 mm | - | - | - |
| 1777975186 | 18.89° C | 94% | 1010.1 hPa | 0 mm | - | - | - |
| 1777974284 | 18.89° C | 94% | 1010.1 hPa | 0 mm | - | - | - |
| 1777973385 | 18.89° C | 94% | 1009.8 hPa | 0 mm | - | - | - |
| 1777972484 | 19.44° C | 94% | 1010.1 hPa | 0 mm | - | - | - |
| 1777971584 | 18.89° C | 94% | 1009.8 hPa | 0 mm | - | - | - |
| 1777970685 | 19.44° C | 93% | 1009.8 hPa | 0 mm | - | - | - |
* Rain since midnight (hover to see other rain measurements)
** Current wind speed in m/s (hover to see current wind gust speed)